Time;durP1;ratioP1;P1;durP2;ratioP2;P2;SDS_P1;SDS_P2;PMS_P1;PMS_P2;Temp;Humidity;BMP_temperature;BMP_pressure;BME280_temperature;BME280_humidity;BME280_pressure;Samples;Min_cycle;Max_cycle;Signal;HPM_P1;HPM_P2
2021/07/17 00:01:25;;;;;;;15.20;12.65;;;;;;;22.93;75.83;100464.53;1688414;84;20968;-70
2021/07/17 00:03:52;;;;;;;13.58;12.37;;;;;;;22.94;75.91;100468.38;1688794;84;20938;-71
2021/07/17 00:06:19;;;;;;;15.00;12.82;;;;;;;22.93;75.89;100459.18;1688438;85;21070;-72
2021/07/17 00:08:49;;;;;;;14.10;11.97;;;;;;;22.94;75.71;100460.35;1688301;83;20964;-71
2021/07/17 00:11:15;;;;;;;16.65;13.85;;;;;;;22.95;75.65;100462.52;1688388;83;20964;-71
2021/07/17 00:13:43;;;;;;;15.30;13.80;;;;;;;22.94;75.65;100459.02;1688460;83;20933;-71
2021/07/17 00:16:12;;;;;;;18.37;14.18;;;;;;;22.95;75.53;100459.84;1688359;85;20932;-71
2021/07/17 00:18:39;;;;;;;16.10;14.15;;;;;;;22.95;75.31;100451.81;1688612;84;21579;-71
2021/07/17 00:21:05;;;;;;;15.18;13.78;;;;;;;22.96;75.23;100461.48;1688391;85;20972;-72
2021/07/17 00:23:33;;;;;;;14.55;13.00;;;;;;;22.96;75.03;100452.95;1688646;85;20956;-70
2021/07/17 00:26:00;;;;;;;15.40;13.90;;;;;;;22.98;74.93;100448.27;1698062;83;21405;-71
2021/07/17 00:28:28;;;;;;;15.15;13.30;;;;;;;23.00;74.88;100445.97;1698603;84;20967;-71
2021/07/17 00:30:55;;;;;;;15.95;13.45;;;;;;;23.02;74.70;100443.95;1698660;84;21141;-70
2021/07/17 00:33:23;;;;;;;14.55;12.68;;;;;;;23.02;74.68;100444.77;1698606;84;20897;-71
2021/07/17 00:35:50;;;;;;;14.87;12.98;;;;;;;23.04;74.63;100449.95;1698543;84;20977;-70
2021/07/17 00:38:17;;;;;;;14.43;13.03;;;;;;;23.03;74.81;100445.09;1698603;83;21041;-71
2021/07/17 00:40:44;;;;;;;16.15;13.72;;;;;;;23.01;74.87;100436.44;1698605;83;20924;-70
2021/07/17 00:43:11;;;;;;;18.67;13.75;;;;;;;23.00;75.04;100443.30;1698640;84;21131;-71
2021/07/17 00:45:38;;;;;;;15.53;13.08;;;;;;;22.98;75.05;100436.74;1698739;84;21492;-70
2021/07/17 00:48:05;;;;;;;14.68;13.28;;;;;;;22.94;75.08;100432.75;1698672;84;21435;-70
2021/07/17 00:50:32;;;;;;;15.78;13.78;;;;;;;22.93;75.20;100439.12;1698898;84;20968;-70
2021/07/17 00:52:59;;;;;;;15.58;13.80;;;;;;;22.89;75.14;100447.99;1698670;84;20944;-70
2021/07/17 00:55:27;;;;;;;14.07;12.68;;;;;;;22.87;75.12;100450.01;1698542;84;21154;-70
2021/07/17 00:57:54;;;;;;;14.20;12.70;;;;;;;22.85;75.06;100451.20;1698601;84;20956;-70
2021/07/17 01:00:21;;;;;;;24.80;13.55;;;;;;;22.82;74.97;100452.90;1698769;84;20885;-71
2021/07/17 01:03:08;;;;;;;19.45;14.70;;;;;;;22.80;75.18;100443.70;1698601;84;21370;-70
2021/07/17 01:05:36;;;;;;;15.93;14.23;;;;;;;22.78;75.45;100448.91;1698522;84;20908;-71
2021/07/17 01:08:05;;;;;;;15.15;13.80;;;;;;;22.73;75.57;100450.77;1698767;84;20960;-71
2021/07/17 01:10:32;;;;;;;25.43;15.32;;;;;;;22.67;75.75;100442.94;1698807;84;20956;-71
2021/07/17 01:13:01;;;;;;;17.73;13.43;;;;;;;22.63;75.83;100442.12;1698558;83;21378;-70
2021/07/17 01:15:27;;;;;;;16.02;14.25;;;;;;;22.61;75.96;100446.81;1699071;84;20956;-72
2021/07/17 01:17:54;;;;;;;14.85;13.45;;;;;;;22.58;76.13;100444.50;1698756;84;20904;-72
2021/07/17 01:20:22;;;;;;;17.25;13.05;;;;;;;22.54;76.13;100438.66;1698879;84;21501;-71
2021/07/17 01:22:49;;;;;;;15.93;14.23;;;;;;;22.52;76.16;100446.87;1698548;83;20941;-74
2021/07/17 01:25:23;;;;;;;15.35;13.70;;;;;;;22.49;76.25;100443.20;1693434;83;20948;-72
2021/07/17 01:27:52;;;;;;;15.93;14.20;;;;;;;22.47;76.34;100447.88;1688315;85;21016;-71
2021/07/17 01:30:23;;;;;;;15.93;14.25;;;;;;;22.46;76.34;100453.42;1688611;85;20924;-70
2021/07/17 01:32:50;;;;;;;17.75;13.78;;;;;;;22.43;76.54;100450.56;1688374;83;21143;-72
2021/07/17 01:35:17;;;;;;;15.23;13.72;;;;;;;22.41;76.53;100443.73;1688509;85;21582;-73
2021/07/17 01:39:24;;;;;;;15.65;13.93;;;;;;;22.39;76.78;100444.41;1798589;79;22488;-73
2021/07/17 01:41:51;;;;;;;17.60;13.83;;;;;;;22.30;76.80;100441.79;1758374;81;20880;-71
2021/07/17 01:44:18;;;;;;;19.30;13.65;;;;;;;22.30;76.87;100455.15;1758276;81;21151;-71
2021/07/17 01:46:48;;;;;;;19.12;13.85;;;;;;;22.29;76.91;100447.30;1758210;81;20869;-72
2021/07/17 01:49:15;;;;;;;21.37;13.83;;;;;;;22.27;77.02;100450.13;1758359;81;20916;-72
2021/07/17 01:51:44;;;;;;;20.92;14.80;;;;;;;22.27;77.06;100452.80;1758307;81;20900;-69
2021/07/17 01:54:10;;;;;;;21.55;14.65;;;;;;;22.26;77.08;100448.98;1758370;81;21422;-69
2021/07/17 01:56:37;;;;;;;17.32;14.30;;;;;;;22.24;77.04;100458.50;1758595;81;21484;-70
2021/07/17 01:59:04;;;;;;;15.25;13.75;;;;;;;22.22;77.21;100455.67;1758162;80;20925;-69
2021/07/17 02:01:32;;;;;;;17.42;13.58;;;;;;;22.22;77.22;100454.34;1758325;81;20923;-70
2021/07/17 02:03:58;;;;;;;19.48;14.18;;;;;;;22.21;77.22;100453.48;1758181;80;20940;-70
2021/07/17 02:06:29;;;;;;;17.50;13.78;;;;;;;22.22;77.06;100451.67;1758537;81;20869;-69
2021/07/17 02:08:56;;;;;;;16.27;13.65;;;;;;;22.22;76.95;100439.14;1758356;81;21837;-70
2021/07/17 02:11:23;;;;;;;15.93;14.50;;;;;;;22.22;76.95;100444.48;1758470;81;20924;-70
2021/07/17 02:13:53;;;;;;;15.23;13.45;;;;;;;22.23;76.94;100445.31;1758317;81;21370;-70
2021/07/17 02:16:22;;;;;;;17.15;13.45;;;;;;;22.23;76.83;100449.31;1758285;80;20889;-71
2021/07/17 02:18:49;;;;;;;21.73;15.00;;;;;;;22.23;76.73;100443.49;1758326;81;20952;-70
2021/07/17 02:21:16;;;;;;;16.95;15.00;;;;;;;22.24;76.74;100452.33;1758026;81;21978;-70
2021/07/17 02:23:44;;;;;;;17.48;14.05;;;;;;;22.24;76.84;100452.33;1758135;81;20888;-70
2021/07/17 02:26:11;;;;;;;17.67;15.85;;;;;;;22.22;76.83;100455.16;1758592;81;21425;-69
2021/07/17 02:28:38;;;;;;;15.35;13.78;;;;;;;22.17;77.02;100456.16;1758166;80;20934;-69
2021/07/17 02:31:06;;;;;;;31.15;17.60;;;;;;;22.12;77.27;100451.34;1758500;81;20878;-70
2021/07/17 02:33:33;;;;;;;22.52;16.90;;;;;;;22.11;77.40;100458.17;1758253;81;21385;-69
2021/07/17 02:35:59;;;;;;;17.20;14.07;;;;;;;22.09;77.67;100456.17;1758660;80;20924;-69
2021/07/17 02:38:27;;;;;;;18.10;14.87;;;;;;;22.11;77.64;100455.00;1751733;81;21469;-70
2021/07/17 02:40:53;;;;;;;24.80;15.43;;;;;;;22.15;77.80;100459.50;1745211;82;20842;-69
2021/07/17 02:43:20;;;;;;;17.98;14.98;;;;;;;22.18;77.77;100460.48;1745290;82;20983;-70
2021/07/17 02:45:47;;;;;;;19.50;14.78;;;;;;;22.21;77.65;100461.50;1745089;81;21124;-70
2021/07/17 02:48:14;;;;;;;15.85;13.85;;;;;;;22.22;77.50;100461.84;1745465;81;20877;-70
2021/07/17 02:50:41;;;;;;;23.05;16.15;;;;;;;22.25;77.51;100453.98;1744621;81;20957;-70
2021/07/17 02:53:08;;;;;;;22.45;14.75;;;;;;;22.26;77.55;100455.67;1745027;81;21493;-69
2021/07/17 02:55:35;;;;;;;19.12;15.25;;;;;;;22.28;77.42;100455.82;1744622;82;20849;-70
2021/07/17 02:58:02;;;;;;;18.35;14.70;;;;;;;22.30;77.31;100455.15;1745029;81;21079;-70
2021/07/17 03:00:33;;;;;;;18.15;14.43;;;;;;;22.34;77.10;100464.97;1744591;82;20960;-70
2021/07/17 03:02:57;;;;;;;21.68;15.93;;;;;;;22.35;76.92;100462.64;1744901;81;21473;-69
2021/07/17 03:05:24;;;;;;;18.15;15.08;;;;;;;22.39;76.79;100460.44;1744740;80;21097;-69
2021/07/17 03:07:51;;;;;;;18.27;15.40;;;;;;;22.42;76.75;100466.80;1744950;80;20973;-71
2021/07/17 03:10:19;;;;;;;17.37;15.50;;;;;;;22.46;76.59;100472.95;1744594;80;21319;-70
2021/07/17 03:12:45;;;;;;;18.17;16.32;;;;;;;22.51;76.50;100471.92;1744911;81;20865;-72
2021/07/17 03:15:12;;;;;;;19.65;17.05;;;;;;;22.54;76.48;100467.58;1744646;81;20909;-70
2021/07/17 03:17:39;;;;;;;22.25;18.67;;;;;;;22.59;76.47;100464.86;1744877;82;20905;-70
2021/07/17 03:20:07;;;;;;;19.37;17.37;;;;;;;22.63;76.39;100471.02;1744588;80;20901;-71
2021/07/17 03:22:35;;;;;;;18.98;16.52;;;;;;;22.68;76.31;100463.84;1744797;82;21975;-71
2021/07/17 03:25:02;;;;;;;18.90;16.82;;;;;;;22.73;76.25;100465.48;1744515;82;20877;-71
2021/07/17 03:27:29;;;;;;;22.52;16.42;;;;;;;22.79;76.16;100463.45;1744926;81;20976;-71
2021/07/17 03:29:56;;;;;;;18.07;15.58;;;;;;;22.84;76.07;100462.41;1744498;82;20901;-71
2021/07/17 03:32:26;;;;;;;18.67;16.02;;;;;;;22.90;75.98;100459.52;1744944;81;20927;-71
2021/07/17 03:34:53;;;;;;;18.07;16.32;;;;;;;22.92;75.97;100458.36;1744495;80;21157;-71
2021/07/17 03:37:20;;;;;;;17.77;15.95;;;;;;;22.96;75.78;100454.30;1744712;80;20897;-71
2021/07/17 03:39:47;;;;;;;26.70;16.87;;;;;;;23.01;75.74;100451.14;1749474;81;20942;-71
2021/07/17 03:42:14;;;;;;;25.00;17.87;;;;;;;23.09;75.69;100453.75;1750123;82;20932;-71
2021/07/17 03:44:40;;;;;;;25.85;19.87;;;;;;;23.18;75.60;100455.86;1750399;82;20936;-71
2021/07/17 03:47:08;;;;;;;21.02;15.90;;;;;;;23.26;75.40;100452.30;1750220;80;21139;-70
2021/07/17 03:49:34;;;;;;;19.20;17.17;;;;;;;23.35;75.25;100453.39;1750501;82;20861;-70
2021/07/17 03:52:02;;;;;;;18.50;16.67;;;;;;;23.44;75.17;100459.52;1750439;80;20956;-69
2021/07/17 03:54:28;;;;;;;22.22;16.95;;;;;;;23.50;74.99;100455.27;1750460;82;20944;-70
2021/07/17 03:56:55;;;;;;;22.13;18.52;;;;;;;23.56;74.95;100452.70;1750236;80;20841;-71
2021/07/17 03:59:23;;;;;;;18.57;16.70;;;;;;;23.65;74.68;100453.97;1750052;81;22010;-71
2021/07/17 04:01:51;;;;;;;18.92;16.97;;;;;;;23.70;74.35;100457.78;1750125;82;20833;-71
2021/07/17 04:04:19;;;;;;;19.32;17.37;;;;;;;23.75;74.15;100460.77;1750412;82;20893;-71
2021/07/17 04:06:46;;;;;;;18.17;16.48;;;;;;;23.79;73.98;100459.39;1750163;82;20885;-72
2021/07/17 04:09:14;;;;;;;20.57;17.80;;;;;;;23.85;73.80;100461.83;1750153;82;20845;-71
2021/07/17 04:11:41;;;;;;;20.00;17.10;;;;;;;23.89;73.56;100458.30;1750135;82;21144;-70
2021/07/17 04:14:08;;;;;;;21.97;17.75;;;;;;;23.94;73.42;100461.25;1750344;82;21469;-70
2021/07/17 04:16:36;;;;;;;17.90;15.95;;;;;;;24.02;73.38;100452.30;1750105;82;20945;-71
2021/07/17 04:19:02;;;;;;;22.45;17.62;;;;;;;24.10;73.15;100454.39;1750400;80;20884;-70
2021/07/17 04:21:29;;;;;;;21.65;17.27;;;;;;;24.25;72.91;100459.72;1750207;82;20976;-71
2021/07/17 04:23:56;;;;;;;24.25;18.37;;;;;;;24.44;72.49;100462.88;1750487;82;21503;-70
2021/07/17 04:26:23;;;;;;;18.67;16.85;;;;;;;24.76;72.19;100459.77;1750131;81;20861;-71
2021/07/17 04:28:49;;;;;;;18.50;16.70;;;;;;;25.22;71.19;100451.94;1750460;82;20940;-72
2021/07/17 04:31:17;;;;;;;17.65;16.05;;;;;;;25.72;69.74;100452.75;1750167;82;20913;-72
2021/07/17 04:33:43;;;;;;;18.23;16.45;;;;;;;26.23;68.12;100448.96;1733620;82;21398;-72
2021/07/17 04:36:10;;;;;;;18.45;16.37;;;;;;;26.74;66.30;100450.45;1750166;82;21827;-71
2021/07/17 04:38:39;;;;;;;16.90;15.13;;;;;;;27.22;64.75;100448.51;1748427;82;20944;-72
2021/07/17 04:41:06;;;;;;;21.02;15.30;;;;;;;27.72;63.29;100452.12;1744685;82;20885;-73
2021/07/17 04:43:33;;;;;;;17.92;16.32;;;;;;;28.18;61.97;100451.77;1744854;82;20956;-72
2021/07/17 04:45:59;;;;;;;16.20;14.83;;;;;;;28.61;60.34;100447.97;1744715;82;20987;-72
2021/07/17 04:48:26;;;;;;;16.90;15.20;;;;;;;28.97;59.11;100447.05;1744572;82;21494;-72
2021/07/17 04:50:53;;;;;;;16.55;14.80;;;;;;;29.30;58.03;100438.75;1744853;82;20990;-72
2021/07/17 04:53:20;;;;;;;16.07;14.58;;;;;;;29.67;57.18;100428.86;1744688;82;21497;-72
2021/07/17 04:55:47;;;;;;;17.00;15.30;;;;;;;30.02;55.94;100431.57;1744811;81;21475;-72
2021/07/17 04:58:14;;;;;;;16.57;14.83;;;;;;;30.33;54.95;100430.08;1744580;80;20913;-70
2021/07/17 05:00:41;;;;;;;16.02;14.47;;;;;;;30.62;54.42;100428.98;1744771;80;21800;-71
2021/07/17 05:03:08;;;;;;;15.13;13.75;;;;;;;30.91;53.61;100427.34;1744429;81;20901;-71
2021/07/17 05:05:36;;;;;;;17.07;13.50;;;;;;;31.18;52.70;100425.58;1744568;82;20921;-70
2021/07/17 05:08:03;;;;;;;15.40;13.85;;;;;;;31.43;52.06;100419.16;1744528;82;20893;-72
2021/07/17 05:10:30;;;;;;;16.48;13.70;;;;;;;31.68;51.28;100421.62;1744530;80;20968;-73
2021/07/17 05:12:57;;;;;;;13.45;12.25;;;;;;;31.90;50.88;100418.58;1744529;80;22185;-71
2021/07/17 05:15:23;;;;;;;14.75;13.38;;;;;;;32.12;50.03;100416.09;1744752;80;20881;-71
2021/07/17 05:17:52;;;;;;;16.45;12.70;;;;;;;32.38;49.35;100416.63;1744499;82;21320;-72
2021/07/17 05:20:19;;;;;;;14.28;12.93;;;;;;;32.63;48.97;100409.52;1744501;81;20941;-73
2021/07/17 05:22:46;;;;;;;14.13;12.65;;;;;;;32.90;48.50;100404.29;1744597;82;20904;-72
2021/07/17 05:25:16;;;;;;;17.98;12.15;;;;;;;33.13;47.64;100406.09;1744745;82;21513;-71
2021/07/17 05:27:43;;;;;;;13.58;12.33;;;;;;;33.27;47.28;100401.13;1744504;82;21403;-72
2021/07/17 05:30:12;;;;;;;18.77;13.43;;;;;;;33.37;46.71;100406.74;1744494;82;20925;-72
2021/07/17 05:32:39;;;;;;;13.88;12.78;;;;;;;33.42;46.55;100403.27;1744427;82;21453;-73
2021/07/17 05:35:06;;;;;;;15.63;12.13;;;;;;;33.52;46.42;100397.16;1744821;82;20920;-73
2021/07/17 05:37:33;;;;;;;12.98;11.50;;;;;;;33.77;45.82;100396.20;1744488;80;21103;-72
2021/07/17 05:40:00;;;;;;;13.70;12.05;;;;;;;34.04;45.38;100400.34;1744441;81;20924;-73
2021/07/17 05:42:27;;;;;;;13.35;12.15;;;;;;;34.28;44.75;100403.36;1744693;82;21445;-72
2021/07/17 05:44:54;;;;;;;13.13;11.75;;;;;;;34.38;44.79;100401.58;1744796;81;20889;-72
2021/07/17 05:47:22;;;;;;;14.83;13.60;;;;;;;34.43;44.56;100400.27;1744496;82;20957;-72
2021/07/17 05:49:50;;;;;;;15.03;12.35;;;;;;;34.53;43.74;100400.93;1744583;81;21461;-72
2021/07/17 05:52:18;;;;;;;13.93;12.30;;;;;;;34.57;43.53;100399.31;1744509;82;21059;-72
2021/07/17 05:54:46;;;;;;;13.93;12.70;;;;;;;34.61;43.14;100392.27;1744637;81;20913;-73
2021/07/17 05:57:13;;;;;;;12.68;11.48;;;;;;;34.71;43.27;100392.95;1744267;82;20889;-72
2021/07/17 05:59:40;;;;;;;15.08;12.85;;;;;;;34.88;43.02;100392.82;1744829;82;20952;-72
2021/07/17 06:02:07;;;;;;;14.00;11.85;;;;;;;35.05;42.50;100396.23;1744893;82;21502;-71
2021/07/17 06:04:33;;;;;;;13.75;12.45;;;;;;;35.11;42.15;100394.39;1744631;82;20909;-71
2021/07/17 06:07:00;;;;;;;13.00;12.00;;;;;;;35.03;42.15;100394.86;1744819;82;20877;-71
2021/07/17 06:09:27;;;;;;;12.73;11.63;;;;;;;34.97;42.68;100398.08;1744518;82;21012;-72
2021/07/17 06:11:55;;;;;;;13.95;12.20;;;;;;;35.11;42.38;100395.75;1744604;82;20889;-72
2021/07/17 06:14:23;;;;;;;12.45;11.25;;;;;;;35.33;42.00;100392.95;1744920;82;21141;-72
2021/07/17 06:16:50;;;;;;;12.10;10.80;;;;;;;35.45;42.40;100395.47;1744749;82;20909;-73
2021/07/17 06:19:17;;;;;;;12.20;11.22;;;;;;;35.66;42.22;100395.91;1734084;82;20924;-72
2021/07/17 06:21:43;;;;;;;14.43;10.78;;;;;;;35.84;41.98;100391.91;1744654;80;20917;-71
2021/07/17 06:24:10;;;;;;;11.55;10.68;;;;;;;36.06;41.38;100389.52;1744858;82;20944;-72
2021/07/17 06:26:37;;;;;;;11.90;10.60;;;;;;;36.34;40.74;100393.73;1744691;82;21484;-72
2021/07/17 06:29:03;;;;;;;12.90;11.83;;;;;;;36.54;40.19;100388.86;1744805;80;20874;-71
2021/07/17 06:31:31;;;;;;;12.35;11.05;;;;;;;36.67;39.80;100391.09;1744672;82;21390;-72
2021/07/17 06:33:57;;;;;;;11.18;10.18;;;;;;;36.71;39.95;100388.66;1744615;82;20999;-72
2021/07/17 06:36:26;;;;;;;12.45;11.33;;;;;;;36.84;39.91;100391.38;1744645;82;20916;-71
2021/07/17 06:38:52;;;;;;;12.18;11.08;;;;;;;36.98;39.84;100387.56;1746403;81;21714;-73
2021/07/17 06:41:19;;;;;;;11.38;10.35;;;;;;;37.12;39.54;100388.12;1757934;81;21513;-74
2021/07/17 06:43:47;;;;;;;11.48;10.55;;;;;;;37.33;39.50;100378.51;1757988;81;20888;-73
2021/07/17 06:46:15;;;;;;;11.25;10.43;;;;;;;37.57;39.22;100386.97;1758270;80;20932;-72
2021/07/17 06:48:42;;;;;;;10.95;9.95;;;;;;;37.80;38.45;100385.55;1757945;80;21370;-73
2021/07/17 06:51:09;;;;;;;9.80;9.00;;;;;;;37.91;38.01;100380.29;1758178;81;21123;-75
2021/07/17 06:53:36;;;;;;;10.03;9.18;;;;;;;37.94;36.71;100383.83;1758039;81;20861;-73
2021/07/17 06:56:03;;;;;;;9.78;8.88;;;;;;;37.99;36.54;100384.91;1758004;81;20848;-73
2021/07/17 06:58:30;;;;;;;10.30;9.35;;;;;;;38.02;36.63;100376.99;1758198;80;20940;-73
2021/07/17 07:00:57;;;;;;;9.85;8.40;;;;;;;38.09;36.65;100379.42;1722031;83;20908;-73
2021/07/17 07:03:24;;;;;;;9.08;8.18;;;;;;;38.13;36.45;100383.21;1722118;83;21501;-73
2021/07/17 07:05:51;;;;;;;8.35;7.83;;;;;;;38.20;36.66;100378.27;1721957;83;20939;-73
2021/07/17 07:08:18;;;;;;;10.43;7.72;;;;;;;38.40;36.61;100380.06;1721735;83;21013;-72
2021/07/17 07:10:46;;;;;;;8.38;7.65;;;;;;;38.64;36.20;100386.22;1721881;82;20892;-71
2021/07/17 07:13:14;;;;;;;10.75;7.75;;;;;;;38.85;35.53;100381.41;1722068;82;20927;-72
2021/07/17 07:15:42;;;;;;;8.50;7.80;;;;;;;38.94;34.28;100376.97;1721825;83;21151;-73
2021/07/17 07:18:09;;;;;;;8.15;7.47;;;;;;;38.94;34.11;100382.45;1721997;82;21484;-73
2021/07/17 07:20:37;;;;;;;8.48;7.33;;;;;;;38.99;34.29;100378.28;1695694;83;20916;-75
2021/07/17 07:23:04;;;;;;;16.55;7.12;;;;;;;39.05;34.03;100374.39;1722098;83;20927;-74
2021/07/17 07:25:31;;;;;;;9.45;6.40;;;;;;;39.14;34.15;100370.47;1721885;82;21485;-73
2021/07/17 07:27:58;;;;;;;8.05;6.37;;;;;;;39.22;33.30;100377.24;1722144;82;21521;-72
2021/07/17 07:30:25;;;;;;;7.20;5.37;;;;;;;39.16;32.42;100371.81;1722002;83;20900;-73
2021/07/17 07:32:52;;;;;;;6.65;6.05;;;;;;;39.14;31.95;100371.28;1721798;83;20887;-73
2021/07/17 07:35:21;;;;;;;7.95;5.42;;;;;;;39.02;32.78;100366.76;1721823;83;20920;-72
2021/07/17 07:37:48;;;;;;;7.15;6.55;;;;;;;39.05;33.67;100366.16;1722174;83;20975;-73
2021/07/17 07:40:15;;;;;;;8.15;6.72;;;;;;;39.17;33.05;100367.95;1718796;83;21946;-73
2021/07/17 07:42:42;;;;;;;7.33;6.62;;;;;;;39.31;32.93;100370.02;1716524;82;20884;-73
2021/07/17 07:45:10;;;;;;;7.45;5.67;;;;;;;39.42;33.07;100372.13;1716496;83;20947;-72
2021/07/17 07:47:37;;;;;;;6.12;5.58;;;;;;;39.57;33.04;100373.33;1716701;82;20872;-74
2021/07/17 07:50:06;;;;;;;6.12;5.15;;;;;;;39.67;32.19;100369.10;1716446;83;20939;-65
2021/07/17 07:52:33;;;;;;;6.53;5.87;;;;;;;39.79;31.46;100361.80;1716416;83;21153;-67
2021/07/17 07:55:00;;;;;;;7.67;5.55;;;;;;;39.80;31.03;100363.46;1716442;83;20951;-66
2021/07/17 07:57:27;;;;;;;6.40;5.90;;;;;;;39.66;31.21;100356.47;1716477;82;20920;-67
2021/07/17 07:59:54;;;;;;;8.58;6.03;;;;;;;39.59;31.51;100365.06;1716418;83;20934;-69
2021/07/17 08:02:21;;;;;;;6.42;5.80;;;;;;;39.66;31.70;100373.50;1716481;83;20932;-69
2021/07/17 08:04:48;;;;;;;6.17;5.78;;;;;;;39.63;31.35;100361.75;1716587;83;21120;-68
2021/07/17 08:07:15;;;;;;;7.62;6.10;;;;;;;39.64;31.02;100359.25;1716406;83;20923;-69
2021/07/17 08:09:42;;;;;;;6.58;6.05;;;;;;;39.64;31.25;100364.17;1716358;83;20912;-70
2021/07/17 08:12:09;;;;;;;6.80;5.92;;;;;;;39.73;31.85;100360.23;1716366;82;21444;-69
2021/07/17 08:14:36;;;;;;;6.12;5.58;;;;;;;39.86;31.79;100353.23;1752859;82;20888;-68
2021/07/17 08:17:06;;;;;;;8.93;5.72;;;;;;;39.88;31.08;100355.14;1716361;83;21967;-68
2021/07/17 08:19:32;;;;;;;6.67;5.72;;;;;;;39.95;31.13;100359.70;1716331;82;20920;-68
2021/07/17 08:21:59;;;;;;;8.33;5.42;;;;;;;39.86;31.21;100354.61;1716415;83;20868;-69
2021/07/17 08:24:26;;;;;;;6.03;5.37;;;;;;;39.67;30.97;100362.23;1716334;83;20880;-69
2021/07/17 08:26:54;;;;;;;6.33;5.72;;;;;;;39.30;31.24;100368.39;1716434;83;20884;-68
2021/07/17 08:29:21;;;;;;;7.78;5.87;;;;;;;38.81;31.55;100358.41;1716731;83;21142;-69
2021/07/17 08:31:48;;;;;;;8.10;5.20;;;;;;;38.49;32.41;100359.20;1716533;82;20970;-69
2021/07/17 08:34:15;;;;;;;8.10;6.05;;;;;;;38.50;32.50;100359.45;1716563;83;20892;-68
2021/07/17 08:36:42;;;;;;;7.85;5.58;;;;;;;38.39;33.20;100357.86;1716374;82;20860;-70
2021/07/17 08:39:09;;;;;;;8.15;4.95;;;;;;;38.24;33.14;100353.29;1716682;82;21437;-70
2021/07/17 08:41:37;;;;;;;10.85;5.22;;;;;;;38.20;33.20;100356.88;1718385;83;21996;-71
2021/07/17 08:44:06;;;;;;;6.55;4.37;;;;;;;37.86;33.20;100348.00;1718531;83;20916;-70
2021/07/17 08:46:35;;;;;;;5.40;4.92;;;;;;;37.55;33.23;100354.95;1718606;83;20895;-69
2021/07/17 08:49:02;;;;;;;6.03;5.42;;;;;;;37.10;34.23;100354.75;1712614;81;21494;-70
2021/07/17 08:51:30;;;;;;;9.75;5.60;;;;;;;37.03;34.31;100356.92;1754641;80;20930;-70
2021/07/17 08:53:57;;;;;;;7.33;4.70;;;;;;;36.76;34.62;100349.57;1735901;81;21581;-70
2021/07/17 08:56:25;;;;;;;8.05;5.20;;;;;;;36.64;35.09;100356.13;1754759;80;20932;-69
2021/07/17 08:58:52;;;;;;;5.22;4.58;;;;;;;36.68;35.14;100349.55;1754548;81;20971;-69
2021/07/17 09:01:19;;;;;;;5.60;5.05;;;;;;;36.80;34.52;100352.00;1754647;81;21476;-71
2021/07/17 09:03:47;;;;;;;7.20;5.22;;;;;;;36.63;34.34;100350.92;1718408;83;21382;-69
2021/07/17 09:06:14;;;;;;;11.53;5.00;;;;;;;36.51;33.99;100353.91;1718772;83;21499;-74
2021/07/17 09:12:32;;;;;;;6.80;4.53;;;;;;;36.76;34.03;100355.04;1709161;82;20945;-73
2021/07/17 09:15:01;;;;;;;6.20;4.55;;;;;;;36.90;33.77;100345.99;1717015;83;20893;-69
2021/07/17 09:17:31;;;;;;;8.68;4.80;;;;;;;36.94;33.11;100349.02;1717438;82;20963;-74
2021/07/17 09:20:00;;;;;;;8.73;4.83;;;;;;;36.91;33.18;100349.02;1717934;83;21902;-72
2021/07/17 09:22:36;;;;;;;8.60;4.60;;;;;;;37.04;33.63;100348.17;1717784;82;21527;-71
2021/07/17 09:25:17;;;;;;;6.65;4.28;;;;;;;37.28;33.06;100349.25;1693635;83;20936;-73
2021/07/17 09:27:45;;;;;;;8.58;5.10;;;;;;;37.38;33.56;100338.85;1716900;83;20933;-73
2021/07/17 09:30:30;;;;;;;6.78;4.60;;;;;;;37.50;33.71;100347.55;1647807;82;21174;-72
2021/07/17 09:33:03;;;;;;;6.17;4.30;;;;;;;37.64;33.44;100343.73;1715113;82;21589;-75
2021/07/17 09:35:33;;;;;;;7.72;4.95;;;;;;;37.77;33.05;100344.20;1737155;82;20991;-74
2021/07/17 09:38:03;;;;;;;5.97;4.90;;;;;;;37.85;32.79;100343.08;1737473;82;20956;-73
2021/07/17 09:40:51;;;;;;;6.37;4.47;;;;;;;37.91;32.98;100337.04;1706551;82;20957;-78
2021/07/17 09:43:32;;;;;;;7.40;4.80;;;;;;;38.09;32.30;100336.97;1737039;81;21604;-72
2021/07/17 09:45:59;;;;;;;4.95;4.55;;;;;;;38.01;31.60;100343.81;1737566;82;21113;-72
2021/07/17 09:48:30;;;;;;;7.00;4.65;;;;;;;38.02;31.98;100344.66;1731193;81;20940;-69
2021/07/17 09:51:00;;;;;;;7.25;4.75;;;;;;;38.05;31.78;100331.23;1707145;82;20924;-68
2021/07/17 11:43:03;;;;;;;7.62;5.20;;;;;;;35.76;37.13;100286.53;1678008;82;21084;-71
2021/07/17 11:45:30;;;;;;;6.95;5.22;;;;;;;35.40;37.15;100290.45;1688298;81;20972;-73
2021/07/17 11:48:09;;;;;;;5.12;4.70;;;;;;;35.16;37.88;100277.77;1763778;80;20913;-71
2021/07/17 11:50:37;;;;;;;6.45;5.05;;;;;;;35.05;38.51;100278.22;1725196;80;21068;-72
2021/07/17 11:53:14;;;;;;;6.53;5.60;;;;;;;35.00;38.40;100273.56;1746981;80;21013;-72
2021/07/17 11:55:42;;;;;;;6.37;5.78;;;;;;;34.91;38.06;100266.97;1757368;78;21135;-71
2021/07/17 11:58:16;;;;;;;5.37;4.87;;;;;;;34.76;38.93;100266.86;1780729;78;20982;-71
2021/07/17 12:00:43;;;;;;;10.08;5.62;;;;;;;34.67;38.89;100266.52;1765640;80;20871;-72
2021/07/17 12:03:10;;;;;;;6.62;5.65;;;;;;;34.60;39.24;100269.42;1740604;80;20948;-72
2021/07/17 12:05:38;;;;;;;5.80;4.95;;;;;;;34.58;39.81;100255.25;1743236;80;20975;-71
2021/07/17 12:08:05;;;;;;;7.78;5.45;;;;;;;34.54;39.96;100259.56;1744334;80;21132;-72
2021/07/17 12:10:32;;;;;;;6.00;5.40;;;;;;;34.52;38.95;100255.47;1753759;80;20997;-71
2021/07/17 12:13:03;;;;;;;8.10;4.97;;;;;;;34.45;39.71;100257.86;1777995;78;21130;-70
2021/07/17 12:15:37;;;;;;;5.28;4.85;;;;;;;34.40;38.90;100254.29;1745648;79;20956;-74
2021/07/17 12:18:13;;;;;;;7.03;6.00;;;;;;;34.18;38.41;100248.38;1737943;80;21500;-67
2021/07/17 12:21:00;;;;;;;8.40;4.92;;;;;;;33.99;39.13;100241.06;1745763;80;21161;-66
2021/07/17 12:23:27;;;;;;;6.50;5.37;;;;;;;33.82;37.88;100234.92;1688466;83;21496;-75
2021/07/17 12:25:59;;;;;;;4.90;4.40;;;;;;;33.70;38.88;100228.80;1677499;83;20948;-73
2021/07/17 12:28:34;;;;;;;8.57;4.57;;;;;;;33.64;38.62;100226.57;1708463;83;20903;-73
2021/07/17 12:31:07;;;;;;;9.18;5.35;;;;;;;33.64;38.62;100226.57;1687335;80;21421;-72
2021/07/17 12:33:34;;;;;;;5.95;5.37;;;;;;;33.62;39.43;100220.56;1716121;82;21095;-73
2021/07/17 12:36:26;;;;;;;7.12;5.40;;;;;;;33.58;40.23;100219.39;1716647;82;21037;-71
2021/07/17 12:39:03;;;;;;;7.78;5.72;;;;;;;33.57;40.01;100219.09;1726257;80;20873;-74
2021/07/17 12:41:33;;;;;;;9.05;6.00;;;;;;;33.52;40.28;100216.33;1724282;79;20932;-71
2021/07/17 12:44:09;;;;;;;11.30;6.03;;;;;;;33.45;39.76;100215.97;1740893;78;21017;-70
2021/07/17 12:46:40;;;;;;;10.25;6.35;;;;;;;33.42;39.74;100215.67;1679540;81;21328;-73
2021/07/17 12:49:21;;;;;;;10.68;6.60;;;;;;;33.40;40.49;100215.11;1721424;81;20882;-73
2021/07/17 12:51:52;;;;;;;6.03;5.42;;;;;;;33.34;40.46;100216.92;1723206;81;21410;-72
2021/07/17 12:57:05;;;;;;;5.97;5.58;;;;;;;33.29;40.99;100216.05;1725999;79;20824;-73
2021/07/17 12:59:40;;;;;;;6.55;5.85;;;;;;;33.26;41.02;100212.47;1727455;80;21117;-73
2021/07/17 13:02:19;;;;;;;12.73;6.20;;;;;;;33.23;40.07;100209.17;1735954;80;20935;-74
2021/07/17 13:04:52;;;;;;;7.53;5.83;;;;;;;33.16;39.91;100210.45;1749614;81;20899;-72
2021/07/17 13:07:35;;;;;;;6.95;5.45;;;;;;;33.08;40.13;100212.23;1755432;78;20974;-72
2021/07/17 13:10:06;;;;;;;6.83;5.35;;;;;;;33.01;39.77;100211.84;1739135;80;21059;-73
2021/07/17 13:12:37;;;;;;;5.85;5.35;;;;;;;32.92;39.35;100217.97;1778584;79;21006;-75
2021/07/17 13:15:12;;;;;;;8.15;4.90;;;;;;;32.83;39.96;100212.95;1778519;80;20904;-73
2021/07/17 13:17:40;;;;;;;11.57;5.25;;;;;;;32.77;40.88;100213.97;1751451;78;20894;-75